Alpha, Michigan
Current Conditions -  °F | °C
As of 2:37 AM on Tuesday 21 Oct 2014 (Local Time) from KIMT Reporting Station
Overcast Overcast  
Wind Chill:   Ceiling: 2000
Heat Index:   Visibility: 10mi
Dew Point:   Wind: 10mph
Humidity: 82%   Direction: 360°N
Pressure: 30.08"   Gusts: NA
Location:  46.04°N, 88.38°W
Report Text: KIMT 210737Z AUTO 36009KT 10SM OVC020 05/02 A3008 RMK AO2 CIG 012V023 T00500022
Loading
Personal Weather Stations






























Interactive Weather Map
Tropical Storm Tracking
New forecast layout! Learn more

10-Day Weather Forecast

Advertisements
Track Severe Weather on mobile